ADDS METAR Data INFO
IDs: Format: Raw Decoded Include TAF

Data at: 0744 UTC 21 Jul 2018

PAAQ 210653Z AUTO 00000KT 10SM CLR 16/12 A3033 RMK AO2 SLP274 T01560117 TSNO
PAAQ 210553Z AUTO 18003KT 10SM CLR 17/12 A3032 RMK AO2 SLP270 T01670117 10194 20167 53001 TSNO
PAAQ 210453Z AUTO 00000KT 10SM CLR 18/11 A3031 RMK AO2 SLP267 T01830111 TSNO
PAAQ 210353Z AUTO 20005KT 10SM CLR 19/11 A3031 RMK AO2 SLP267 T01890111 TSNO
PAAQ 210253Z AUTO 26005KT 10SM CLR 19/12 A3032 RMK AO2 SLP269 T01890117 56004 TSNO
PAAQ 210153Z 22006KT 10SM CLR 18/13 A3032 RMK AO2 SLP269 T01830128
PAAQ 210053Z VRB04KT 10SM CLR 18/12 A3032 RMK AO2 SLP270 T01780122
PAAQ 202353Z 21005KT 10SM FEW017 18/12 A3033 RMK AO2 SLP273 T01780122 10178 20139 58005
PAAQ 202253Z VRB04KT 10SM SCT017 17/12 A3034 RMK AO2 SLP276 T01670122
PAAQ 202234Z 25003KT 10SM SCT017 16/12 A3035 RMK AO2 T01560117
PAAQ 202153Z 23006KT 10SM BKN015 16/12 A3035 RMK AO2 SLP278 T01610117
PAAQ 202053Z 24006KT 10SM OVC017 16/12 A3035 RMK AO2 SLP278 T01560117 53003
PAAQ 202012Z 20007KT 10SM BKN016 16/12 A3034 RMK AO2 T01560117
PAAQ 201953Z 23005KT 10SM FEW016 16/12 A3034 RMK AO2 SLP275 T01610117
PAAQ 201949Z 24007KT 10SM FEW016 16/12 A3034 RMK AO2
PAAQ 201853Z 21006KT 10SM BKN016 16/12 A3034 RMK AO2 SLP275 T01610117
PAAQ 201753Z VRB03KT 10SM SCT010 14/11 A3034 RMK AO2 SLP274 T01440106 10144 20083 53003
PAAQ 201653Z 15003KT 10SM CLR 13/09 A3033 RMK AO2 SLP272 T01280094
PAAQ 201553Z 00000KT 10SM CLR 12/10 A3033 RMK AO2 SLP272 T01170100
PAAQ 201453Z AUTO 35005KT 10SM CLR 10/09 A3033 RMK AO2 SLP271 T01000094 50003 TSNO
PAAQ 201353Z AUTO 34005KT 10SM CLR 09/09 A3033 RMK AO2 SLP273 T00890089 TSNO
PAAQ 201253Z AUTO 00000KT 9SM CLR 09/09 A3033 RMK AO2 SLP271 T00890089 TSNO
PAAQ 201153Z AUTO 00000KT 10SM CLR 09/09 A3032 RMK AO2 SLP268 T00940089 10178 20089 51007 TSNO
PAAQ 201053Z AUTO 00000KT 10SM CLR 11/11 A3032 RMK AO2 SLP268 T01060106 TSNO
PAAQ 200953Z AUTO 00000KT 10SM CLR 12/11 A3031 RMK AO2 SLP266 T01170111 TSNO
PAAQ 200853Z AUTO 00000KT 10SM CLR 13/11 A3030 RMK AO2 SLP261 T01330111 402220089 53020 TSNO
PAAQ 200753Z AUTO 23004KT 10SM CLR 14/11 A3028 RMK AO2 SLP254 T01440106 TSNO
PAAQ 200653Z AUTO 15004KT 10SM CLR 16/10 A3026 RMK AO2 SLP247 T01610100 TSNO
PAAQ 200553Z AUTO 20004KT 10SM CLR 18/09 A3024 RMK AO2 SLP240 T01830094 10222 20183 52006 TSNO
PAAQ 200453Z AUTO 22005KT 10SM CLR 20/08 A3023 RMK AO2 SLP238 T02000083 TSNO
PAAQ 200353Z AUTO 25007KT 10SM CLR 21/09 A3023 RMK AO2 SLP237 T02060089 TSNO
PAAQ 200253Z AUTO VRB06KT 10SM CLR 22/11 A3022 RMK AO2 SLP235 T02170106 56005 TSNO
PAAQ 200153Z AUTO 25007KT 10SM CLR 22/11 A3022 RMK AO2 SLP235 T02220111
PAAQ 200053Z AUTO 25008KT 10SM CLR 22/11 A3023 RMK AO2 SLP237 T02220111 TSNO
PAAQ 192353Z 21009KT 10SM CLR 22/11 A3023 RMK AO2 SLP240 T02170111 10217 20156 58004
PAAQ 192253Z 21007KT 10SM CLR 21/11 A3024 RMK AO2 SLP242 T02110106
PAAQ 192153Z 31005KT 10SM CLR 21/10 A3024 RMK AO2 SLP243 T02060100
PAAQ 192053Z 23006KT 10SM CLR 19/10 A3025 RMK AO2 SLP244 T01940100 56003
PAAQ 191953Z 21003KT 10SM CLR 18/09 A3025 RMK AO2 SLP245 T01830094